Time;durP1;ratioP1;P1;durP2;ratioP2;P2;SDS_P1;SDS_P2;PMS_P1;PMS_P2;Temp;Humidity;BMP_temperature;BMP_pressure;BME280_temperature;BME280_humidity;BME280_pressure;Samples;Min_cycle;Max_cycle;Signal;HPM_P1;HPM_P2
2022/11/08 00:04:04;;;;;;;;;;;14.80;99.90;;;;;;5007082;28;20254;-62
2022/11/08 00:14:45;;;;;;;;;;;14.80;99.90;;;;;;5012158;28;20015;-61
2022/11/08 00:17:12;;;;;;;;;;;14.80;99.90;;;;;;5013818;28;20000;-61
2022/11/08 00:19:37;;;;;;;;;;;14.80;99.90;;;;;;5014952;28;20378;-61
2022/11/08 00:22:03;;;;;;;;;;;14.80;99.90;;;;;;5016828;28;20109;-61
2022/11/08 00:24:29;;;;;;;;;;;14.80;99.90;;;;;;5015636;28;19913;-62
2022/11/08 00:26:54;;;;;;;;;;;14.80;99.90;;;;;;5018834;28;19996;-61
2022/11/08 00:29:20;;;;;;;;;;;14.80;99.90;;;;;;5010991;28;19913;-61
2022/11/08 00:31:45;;;;;;;;;;;14.80;99.90;;;;;;5015058;28;19914;-61
2022/11/08 00:34:11;;;;;;;;;;;14.80;99.90;;;;;;5021729;28;20123;-62
2022/11/08 00:36:36;;;;;;;;;;;14.80;99.90;;;;;;5011474;28;20373;-61
2022/11/08 00:39:02;;;;;;;;;;;14.80;99.90;;;;;;5028778;28;19915;-60
2022/11/08 00:41:28;;;;;;;;;;;14.90;99.90;;;;;;5029680;28;19923;-60
2022/11/08 00:43:53;;;;;;;;;;;14.90;99.90;;;;;;5031116;28;19932;-61
2022/11/08 00:46:19;;;;;;;;;;;14.90;99.90;;;;;;5029719;28;19913;-63
2022/11/08 00:48:44;;;;;;;;;;;14.90;99.90;;;;;;5028364;28;19913;-62
2022/11/08 00:51:11;;;;;;;;;;;15.00;99.90;;;;;;5031424;28;19913;-63
2022/11/08 00:53:37;;;;;;;;;;;15.00;99.90;;;;;;5029265;28;19913;-61
2022/11/08 00:56:07;;;;;;;;;;;15.00;99.90;;;;;;5030999;28;19914;-61
2022/11/08 00:58:33;;;;;;;;;;;15.10;99.90;;;;;;5025767;28;19917;-61
2022/11/08 01:00:58;;;;;;;;;;;15.00;99.90;;;;;;5026199;28;19916;-61
2022/11/08 01:03:24;;;;;;;;;;;15.00;99.90;;;;;;5029355;28;19951;-61
2022/11/08 01:05:51;;;;;;;;;;;14.90;99.90;;;;;;5030672;28;20268;-61
2022/11/08 01:08:17;;;;;;;;;;;14.80;99.90;;;;;;5029508;28;20274;-61
2022/11/08 01:10:43;;;;;;;;;;;14.80;99.90;;;;;;5029913;28;19935;-61
2022/11/08 01:13:09;;;;;;;;;;;14.80;99.90;;;;;;5026929;28;20361;-61
2022/11/08 01:15:35;;;;;;;;;;;14.80;99.90;;;;;;5029269;28;19967;-62
2022/11/08 01:18:01;;;;;;;;;;;14.80;99.90;;;;;;5029983;28;19913;-60
2022/11/08 01:20:27;;;;;;;;;;;14.80;99.90;;;;;;5028831;28;19971;-60
2022/11/08 01:22:52;;;;;;;;;;;14.80;99.90;;;;;;5030459;28;19913;-61
2022/11/08 01:25:18;;;;;;;;;;;14.80;99.90;;;;;;5029238;28;19913;-61
2022/11/08 01:27:43;;;;;;;;;;;14.80;99.90;;;;;;5030241;28;19917;-61
2022/11/08 01:30:09;;;;;;;;;;;14.80;99.90;;;;;;5027413;28;19921;-61
2022/11/08 01:32:35;;;;;;;;;;;14.90;99.90;;;;;;5028960;28;19913;-60
2022/11/08 01:35:00;;;;;;;;;;;14.90;99.90;;;;;;5030235;28;19928;-60
2022/11/08 01:37:26;;;;;;;;;;;15.00;99.90;;;;;;5028618;28;19956;-60
2022/11/08 01:39:51;;;;;;;;;;;15.00;99.90;;;;;;5023589;28;19910;-60
2022/11/08 01:42:25;;;;;;;;;;;14.90;99.90;;;;;;5028561;28;19913;-61
2022/11/08 01:45:00;;;;;;;;;;;14.80;99.90;;;;;;5021916;28;19928;-61
2022/11/08 01:47:26;;;;;;;;;;;14.70;99.90;;;;;;5028555;28;19913;-61
2022/11/08 01:49:53;;;;;;;;;;;14.70;99.90;;;;;;5029373;28;19913;-61
2022/11/08 01:52:21;;;;;;;;;;;14.70;99.90;;;;;;5028249;28;19948;-60
2022/11/08 01:55:08;;;;;;;;;;;14.80;99.90;;;;;;5030106;28;19921;-61
2022/11/08 01:57:33;;;;;;;;;;;14.80;99.90;;;;;;5021007;28;19914;-61
2022/11/08 02:00:00;;;;;;;;;;;14.80;99.90;;;;;;5029293;28;20335;-61
2022/11/08 02:02:26;;;;;;;;;;;14.90;99.90;;;;;;5028316;28;20418;-60
2022/11/08 02:04:52;;;;;;;;;;;15.00;99.90;;;;;;5029335;28;20009;-61
2022/11/08 02:07:18;;;;;;;;;;;15.00;99.90;;;;;;5029733;28;20391;-61
2022/11/08 02:09:44;;;;;;;;;;;15.60;99.90;;;;;;5029214;28;20388;-64
2022/11/08 02:12:11;;;;;;;;;;;15.10;99.90;;;;;;5029873;28;19928;-61
2022/11/08 02:14:36;;;;;;;;;;;15.10;99.90;;;;;;5026998;28;19921;-61
2022/11/08 02:17:02;;;;;;;;;;;15.10;99.90;;;;;;5029844;28;20260;-61
2022/11/08 02:19:34;;;;;;;;;;;15.20;99.90;;;;;;5033664;28;20277;-61
2022/11/08 02:22:02;;;;;;;;;;;15.20;99.90;;;;;;5036436;28;20003;-61
2022/11/08 02:24:28;;;;;;;;;;;15.20;99.90;;;;;;5033901;28;19913;-61
2022/11/08 02:26:55;;;;;;;;;;;15.30;99.90;;;;;;5030053;28;20335;-61
2022/11/08 02:29:25;;;;;;;;;;;15.30;99.90;;;;;;5034476;28;19966;-61
2022/11/08 02:31:51;;;;;;;;;;;15.30;99.90;;;;;;5033022;28;19960;-61
2022/11/08 02:34:17;;;;;;;;;;;15.40;99.90;;;;;;5035611;28;20360;-61
2022/11/08 02:36:44;;;;;;;;;;;15.40;99.90;;;;;;5034509;28;19917;-61
2022/11/08 02:39:09;;;;;;;;;;;15.40;99.90;;;;;;5036561;28;20000;-62
2022/11/08 02:41:35;;;;;;;;;;;15.40;99.90;;;;;;5032681;28;19953;-61
2022/11/08 02:44:00;;;;;;;;;;;15.30;99.90;;;;;;5035001;28;20206;-60
2022/11/08 02:46:26;;;;;;;;;;;15.30;99.90;;;;;;5034183;28;19913;-60
2022/11/08 02:48:51;;;;;;;;;;;15.30;99.90;;;;;;5036327;28;20334;-61
2022/11/08 02:51:17;;;;;;;;;;;15.20;99.90;;;;;;5035917;28;20376;-60
2022/11/08 02:53:42;;;;;;;;;;;15.20;99.90;;;;;;5034491;28;20314;-61
2022/11/08 02:56:08;;;;;;;;;;;15.20;99.90;;;;;;5031099;28;19917;-61
2022/11/08 02:58:34;;;;;;;;;;;15.10;99.90;;;;;;5034156;28;19952;-60
2022/11/08 03:00:59;;;;;;;;;;;15.20;99.90;;;;;;5036148;28;19913;-60
2022/11/08 03:03:25;;;;;;;;;;;15.10;99.90;;;;;;5034228;28;20042;-60
2022/11/08 03:05:50;;;;;;;;;;;15.10;99.90;;;;;;5034163;28;19913;-60
2022/11/08 03:08:16;;;;;;;;;;;15.00;99.90;;;;;;5036040;28;19914;-61
2022/11/08 03:10:41;;;;;;;;;;;15.00;99.90;;;;;;5034404;28;19913;-61
2022/11/08 03:13:07;;;;;;;;;;;14.90;99.90;;;;;;5035423;28;20008;-61
2022/11/08 03:15:33;;;;;;;;;;;14.90;99.90;;;;;;5027507;28;19952;-61
2022/11/08 03:17:59;;;;;;;;;;;14.80;99.90;;;;;;5031894;28;19921;-61
2022/11/08 03:20:24;;;;;;;;;;;14.70;99.90;;;;;;5033939;28;20292;-61
2022/11/08 03:22:57;;;;;;;;;;;14.70;99.90;;;;;;5036016;28;19913;-61
2022/11/08 03:25:22;;;;;;;;;;;14.60;99.90;;;;;;5033197;28;20365;-61
2022/11/08 03:27:48;;;;;;;;;;;14.70;99.90;;;;;;5035625;28;19913;-60
2022/11/08 03:30:14;;;;;;;;;;;14.60;99.90;;;;;;5032944;28;19964;-60
2022/11/08 03:32:39;;;;;;;;;;;14.60;99.90;;;;;;5031247;28;19960;-61
2022/11/08 03:35:05;;;;;;;;;;;14.60;99.90;;;;;;5031714;28;19921;-61
2022/11/08 03:37:30;;;;;;;;;;;14.50;99.90;;;;;;5028543;28;19920;-59
2022/11/08 03:39:56;;;;;;;;;;;14.50;99.90;;;;;;5032688;28;20327;-60
2022/11/08 03:42:21;;;;;;;;;;;14.50;99.90;;;;;;5030173;28;19975;-61
2022/11/08 03:44:47;;;;;;;;;;;14.40;99.90;;;;;;5027440;28;20340;-60
2022/11/08 03:47:12;;;;;;;;;;;14.30;99.90;;;;;;5017630;28;19936;-61
2022/11/08 03:49:38;;;;;;;;;;;14.30;99.90;;;;;;5029332;28;20443;-60
2022/11/08 03:52:03;;;;;;;;;;;14.30;99.90;;;;;;5032389;28;20412;-60
2022/11/08 03:54:29;;;;;;;;;;;14.30;99.90;;;;;;5029588;28;20019;-61
2022/11/08 03:56:54;;;;;;;;;;;14.20;99.90;;;;;;5032043;28;19959;-61
2022/11/08 03:59:20;;;;;;;;;;;14.20;99.90;;;;;;5030391;28;19944;-60
2022/11/08 04:01:45;;;;;;;;;;;14.10;99.90;;;;;;5032154;28;20016;-61
2022/11/08 04:04:11;;;;;;;;;;;14.00;99.90;;;;;;5031798;28;19996;-61
2022/11/08 04:06:36;;;;;;;;;;;14.00;99.90;;;;;;5029395;28;20051;-62
2022/11/08 04:09:02;;;;;;;;;;;13.90;99.90;;;;;;5031019;28;20011;-62
2022/11/08 04:17:11;;;;;;;;;;;13.80;99.90;;;;;;5030949;28;20349;-60
2022/11/08 04:22:21;;;;;;;;;;;13.70;99.90;;;;;;5027054;28;20007;-61
2022/11/08 04:24:46;;;;;;;;;;;13.70;99.90;;;;;;5031249;28;19936;-61
2022/11/08 04:27:12;;;;;;;;;;;13.60;99.90;;;;;;5026021;28;20470;-60
2022/11/08 04:29:37;;;;;;;;;;;13.70;99.90;;;;;;5029937;28;20432;-60
2022/11/08 04:32:03;;;;;;;;;;;13.70;99.90;;;;;;5031400;28;19913;-60
2022/11/08 04:34:29;;;;;;;;;;;13.70;99.90;;;;;;5029894;28;19928;-61
2022/11/08 04:36:54;;;;;;;;;;;13.80;99.90;;;;;;5030025;28;19917;-61
2022/11/08 04:39:20;;;;;;;;;;;13.80;99.90;;;;;;5020145;28;20113;-61
2022/11/08 04:41:45;;;;;;;;;;;13.80;99.90;;;;;;5031195;28;19956;-60
2022/11/08 04:44:11;;;;;;;;;;;13.90;99.90;;;;;;5031054;28;20320;-61
2022/11/08 04:46:37;;;;;;;;;;;13.90;99.90;;;;;;5028633;28;19971;-61
2022/11/08 04:49:02;;;;;;;;;;;13.90;99.90;;;;;;5030734;28;20276;-61
2022/11/08 04:51:29;;;;;;;;;;;13.90;99.90;;;;;;5029451;28;19919;-60
2022/11/08 04:53:56;;;;;;;;;;;13.90;99.90;;;;;;5031240;28;19972;-60
2022/11/08 04:56:22;;;;;;;;;;;13.80;99.90;;;;;;5022812;28;20372;-61
2022/11/08 04:58:51;;;;;;;;;;;13.70;99.90;;;;;;5027497;28;20365;-60
2022/11/08 05:01:21;;;;;;;;;;;13.70;99.90;;;;;;5027004;28;19913;-60
2022/11/08 05:03:48;;;;;;;;;;;13.70;99.90;;;;;;5030417;28;19967;-60
2022/11/08 05:06:18;;;;;;;;;;;13.70;99.90;;;;;;5030858;28;19913;-59
2022/11/08 05:08:44;;;;;;;;;;;13.80;99.90;;;;;;5030709;28;20320;-60
2022/11/08 05:11:11;;;;;;;;;;;13.80;99.90;;;;;;5035799;28;19913;-64
2022/11/08 05:13:37;;;;;;;;;;;13.80;99.90;;;;;;5029086;28;20015;-61
2022/11/08 05:16:04;;;;;;;;;;;13.90;99.90;;;;;;5030654;28;20013;-61
2022/11/08 05:18:30;;;;;;;;;;;14.00;99.90;;;;;;5029224;28;20015;-60
2022/11/08 05:23:40;;;;;;;;;;;14.00;99.90;;;;;;5020802;28;19956;-61
2022/11/08 05:26:06;;;;;;;;;;;14.00;99.90;;;;;;5030650;28;19913;-62
2022/11/08 05:28:32;;;;;;;;;;;14.10;99.90;;;;;;5028720;28;19913;-61
2022/11/08 05:30:57;;;;;;;;;;;14.10;99.90;;;;;;5028736;28;19917;-61
2022/11/08 05:33:23;;;;;;;;;;;14.10;99.90;;;;;;5028773;28;19914;-61
2022/11/08 05:35:49;;;;;;;;;;;14.10;99.90;;;;;;5030392;28;19974;-60
2022/11/08 05:38:14;;;;;;;;;;;14.10;99.90;;;;;;5030382;28;19917;-60
2022/11/08 05:40:40;;;;;;;;;;;14.20;99.90;;;;;;5027778;28;19920;-60
2022/11/08 05:43:05;;;;;;;;;;;15.30;99.90;;;;;;5025966;28;19917;-61
2022/11/08 05:45:31;;;;;;;;;;;14.30;99.90;;;;;;5028714;28;19913;-61
2022/11/08 05:48:02;;;;;;;;;;;14.20;99.90;;;;;;5030369;28;19913;-60
2022/11/08 05:50:34;;;;;;;;;;;14.20;99.90;;;;;;5018357;28;19917;-60
2022/11/08 05:53:00;;;;;;;;;;;14.20;99.90;;;;;;5023987;28;19917;-61
2022/11/08 05:55:25;;;;;;;;;;;14.20;99.90;;;;;;5028277;28;19928;-61
2022/11/08 05:57:51;;;;;;;;;;;14.20;99.90;;;;;;5020434;28;19921;-61
2022/11/08 06:00:17;;;;;;;;;;;14.20;99.90;;;;;;5026982;28;19979;-60
2022/11/08 06:02:42;;;;;;;;;;;14.20;99.90;;;;;;5027983;28;19967;-61
2022/11/08 06:05:08;;;;;;;;;;;14.10;99.90;;;;;;5029635;28;19913;-61
2022/11/08 06:07:34;;;;;;;;;;;14.10;99.90;;;;;;5024851;28;20004;-61
2022/11/08 06:10:00;;;;;;;;;;;14.10;99.90;;;;;;5029943;28;19913;-61
2022/11/08 06:12:25;;;;;;;;;;;14.10;99.90;;;;;;5027808;28;20379;-61
2022/11/08 06:14:51;;;;;;;;;;;14.00;99.90;;;;;;5029521;28;19921;-62
2022/11/08 06:17:17;;;;;;;;;;;14.00;99.90;;;;;;5025953;28;19928;-61
2022/11/08 06:19:42;;;;;;;;;;;14.00;99.90;;;;;;5025359;28;19917;-60
2022/11/08 06:22:08;;;;;;;;;;;14.00;99.90;;;;;;5024439;28;19913;-61
2022/11/08 06:24:33;;;;;;;;;;;14.00;99.90;;;;;;5014523;28;20357;-60
2022/11/08 06:26:59;;;;;;;;;;;14.00;99.90;;;;;;5029241;28;19917;-61
2022/11/08 06:29:24;;;;;;;;;;;14.00;99.90;;;;;;5027304;28;19943;-64
2022/11/08 06:31:50;;;;;;;;;;;14.00;99.90;;;;;;5018757;28;19913;-61
2022/11/08 06:34:16;;;;;;;;;;;13.80;99.90;;;;;;5027147;28;19976;-60
2022/11/08 06:36:41;;;;;;;;;;;13.80;99.90;;;;;;5022883;28;19928;-61
2022/11/08 06:39:07;;;;;;;;;;;13.70;99.90;;;;;;5028758;28;20027;-60
2022/11/08 06:41:32;;;;;;;;;;;13.60;99.90;;;;;;5016512;28;19914;-61
2022/11/08 06:43:58;;;;;;;;;;;13.50;99.90;;;;;;5024638;28;19921;-61
2022/11/08 06:46:26;;;;;;;;;;;13.50;99.90;;;;;;5025658;28;20459;-60
2022/11/08 06:48:51;;;;;;;;;;;13.50;99.90;;;;;;5029355;28;19936;-60
2022/11/08 06:51:17;;;;;;;;;;;13.60;99.90;;;;;;5029274;28;19913;-61
2022/11/08 06:53:43;;;;;;;;;;;13.70;99.90;;;;;;5024448;28;19913;-61
2022/11/08 06:56:09;;;;;;;;;;;13.80;99.90;;;;;;5029218;28;19925;-60
2022/11/08 06:58:34;;;;;;;;;;;13.80;99.90;;;;;;5027065;28;19923;-60
2022/11/08 07:01:04;;;;;;;;;;;13.80;99.90;;;;;;5026790;28;19929;-60
2022/11/08 07:03:29;;;;;;;;;;;13.80;99.90;;;;;;5026240;28;19913;-60
2022/11/08 07:05:55;;;;;;;;;;;13.90;99.90;;;;;;5026250;28;20343;-61
2022/11/08 07:08:21;;;;;;;;;;;13.90;99.90;;;;;;5030637;28;20326;-60
2022/11/08 07:10:46;;;;;;;;;;;13.90;99.90;;;;;;5032670;28;19916;-60
2022/11/08 07:13:12;;;;;;;;;;;13.90;99.90;;;;;;5031802;28;19913;-61
2022/11/08 07:15:38;;;;;;;;;;;13.80;99.90;;;;;;5029073;28;19928;-60
2022/11/08 07:18:11;;;;;;;;;;;13.70;99.90;;;;;;5031856;28;19913;-60
2022/11/08 07:20:38;;;;;;;;;;;13.80;99.90;;;;;;5030281;28;19920;-59
2022/11/08 07:23:03;;;;;;;;;;;13.80;99.90;;;;;;5028115;28;19921;-60
2022/11/08 07:25:29;;;;;;;;;;;13.80;99.90;;;;;;5029777;28;20269;-60
2022/11/08 07:28:00;;;;;;;;;;;13.90;99.90;;;;;;5026657;28;19921;-60
2022/11/08 07:30:26;;;;;;;;;;;13.90;99.90;;;;;;5019660;28;19917;-60
2022/11/08 07:32:51;;;;;;;;;;;13.80;99.90;;;;;;5028856;28;19913;-60
2022/11/08 07:35:17;;;;;;;;;;;13.90;99.90;;;;;;5023115;28;20403;-60
2022/11/08 07:37:43;;;;;;;;;;;14.00;99.90;;;;;;5027234;28;19917;-60
2022/11/08 07:40:09;;;;;;;;;;;14.00;99.90;;;;;;5028542;28;20288;-61
2022/11/08 07:42:35;;;;;;;;;;;14.00;99.90;;;;;;5022353;28;19921;-60
2022/11/08 07:45:00;;;;;;;;;;;14.00;99.90;;;;;;5024823;28;19921;-60
2022/11/08 07:47:26;;;;;;;;;;;14.00;99.90;;;;;;5024766;28;19925;-61
2022/11/08 07:49:51;;;;;;;;;;;14.00;99.90;;;;;;5025252;28;20011;-61
2022/11/08 07:52:17;;;;;;;;;;;14.00;99.90;;;;;;5030279;28;19913;-62
2022/11/08 07:54:43;;;;;;;;;;;14.10;99.90;;;;;;5024618;28;19998;-61
2022/11/08 07:57:09;;;;;;;;;;;14.10;99.90;;;;;;5025259;28;20361;-62
2022/11/08 07:59:35;;;;;;;;;;;14.10;99.90;;;;;;5029104;28;19924;-62
2022/11/08 08:02:00;;;;;;;;;;;14.00;99.90;;;;;;5024421;28;19917;-61
2022/11/08 08:04:27;;;;;;;;;;;13.90;99.90;;;;;;5023299;28;19913;-61
2022/11/08 08:06:52;;;;;;;;;;;13.90;99.90;;;;;;5025705;28;19913;-61
2022/11/08 08:09:18;;;;;;;;;;;13.90;99.90;;;;;;5023402;28;19920;-61
2022/11/08 08:11:44;;;;;;;;;;;13.90;99.90;;;;;;5025023;28;19913;-61
2022/11/08 08:14:09;;;;;;;;;;;14.00;99.90;;;;;;5027836;28;20377;-61
2022/11/08 08:16:35;;;;;;;;;;;14.00;99.90;;;;;;5019226;28;19932;-62
2022/11/08 08:19:01;;;;;;;;;;;14.10;99.90;;;;;;5027579;28;19923;-61
2022/11/08 08:21:27;;;;;;;;;;;14.10;99.90;;;;;;5024709;28;20063;-60
2022/11/08 08:23:52;;;;;;;;;;;14.20;99.90;;;;;;5024426;28;19920;-61
2022/11/08 08:26:18;;;;;;;;;;;14.20;99.90;;;;;;5024266;28;19921;-61
2022/11/08 08:28:43;;;;;;;;;;;14.40;99.90;;;;;;5022415;28;20270;-61
2022/11/08 08:31:09;;;;;;;;;;;14.40;99.90;;;;;;5028694;28;20008;-61
2022/11/08 08:33:35;;;;;;;;;;;14.50;99.90;;;;;;5022289;28;19917;-60
2022/11/08 08:36:01;;;;;;;;;;;14.50;99.90;;;;;;5026903;28;19921;-60
2022/11/08 08:38:27;;;;;;;;;;;14.60;99.90;;;;;;5026025;28;19924;-60
2022/11/08 08:40:52;;;;;;;;;;;14.60;99.90;;;;;;5023194;28;19914;-62
2022/11/08 08:43:18;;;;;;;;;;;14.60;99.90;;;;;;5024953;28;19991;-62
2022/11/08 08:45:44;;;;;;;;;;;14.60;99.90;;;;;;5024607;28;20353;-60
2022/11/08 08:48:10;;;;;;;;;;;14.60;99.90;;;;;;5025261;28;19964;-61
2022/11/08 08:50:35;;;;;;;;;;;14.50;99.90;;;;;;5028140;28;19964;-61
2022/11/08 08:53:02;;;;;;;;;;;14.50;99.90;;;;;;5029845;28;19920;-61
2022/11/08 08:55:28;;;;;;;;;;;14.40;99.90;;;;;;5027616;28;19944;-61
2022/11/08 08:57:54;;;;;;;;;;;14.50;99.90;;;;;;5029282;28;20365;-61
2022/11/08 09:00:20;;;;;;;;;;;14.40;99.90;;;;;;5028845;28;19913;-61
2022/11/08 09:02:45;;;;;;;;;;;14.40;99.90;;;;;;5028581;28;19924;-61
2022/11/08 09:05:12;;;;;;;;;;;14.30;99.90;;;;;;5029519;28;20324;-61
2022/11/08 09:07:37;;;;;;;;;;;14.40;99.90;;;;;;5026156;28;19920;-61
2022/11/08 09:10:04;;;;;;;;;;;14.40;99.90;;;;;;5024743;28;19921;-61
2022/11/08 09:12:29;;;;;;;;;;;14.40;99.90;;;;;;5022927;28;19924;-61
2022/11/08 09:14:55;;;;;;;;;;;14.50;99.90;;;;;;5021156;28;19929;-61
2022/11/08 09:17:21;;;;;;;;;;;14.50;99.90;;;;;;5021149;28;19917;-61
2022/11/08 09:19:47;;;;;;;;;;;14.50;99.90;;;;;;5024505;28;19920;-60
2022/11/08 09:22:12;;;;;;;;;;;14.50;99.90;;;;;;5027210;28;19913;-60
2022/11/08 09:24:38;;;;;;;;;;;14.50;99.90;;;;;;5021469;28;21384;-60
2022/11/08 09:27:03;;;;;;;;;;;14.60;99.90;;;;;;5021684;28;20460;-60
2022/11/08 09:29:29;;;;;;;;;;;14.60;99.90;;;;;;5016720;28;19917;-61
2022/11/08 09:31:55;;;;;;;;;;;14.70;99.90;;;;;;5019467;28;20274;-61
2022/11/08 09:34:21;;;;;;;;;;;14.60;99.90;;;;;;5022690;28;19928;-61
2022/11/08 09:36:46;;;;;;;;;;;14.70;99.90;;;;;;5019462;28;19921;-61
2022/11/08 09:39:12;;;;;;;;;;;14.70;99.90;;;;;;5016192;28;19972;-61
2022/11/08 09:41:56;;;;;;;;;;;14.70;99.90;;;;;;5011777;28;20376;-59
2022/11/08 09:44:35;;;;;;;;;;;14.70;99.90;;;;;;5019389;28;19925;-60
2022/11/08 09:47:03;;;;;;;;;;;14.70;99.90;;;;;;5022430;28;20028;-60
2022/11/08 09:49:34;;;;;;;;;;;14.70;99.90;;;;;;5019236;28;20708;-61
2022/11/08 09:52:02;;;;;;;;;;;14.80;99.90;;;;;;5020777;28;20284;-61
2022/11/08 09:54:31;;;;;;;;;;;14.90;99.90;;;;;;5021106;28;19972;-61
2022/11/08 09:56:57;;;;;;;;;;;14.90;99.90;;;;;;5021229;28;19950;-62
2022/11/08 09:59:26;;;;;;;;;;;15.00;99.90;;;;;;5017439;28;19956;-62
2022/11/08 10:01:51;;;;;;;;;;;15.00;99.90;;;;;;5020004;28;19913;-62
2022/11/08 10:04:18;;;;;;;;;;;15.00;99.90;;;;;;5023234;28;20277;-62
2022/11/08 10:07:06;;;;;;;;;;;15.10;99.90;;;;;;5018393;28;20273;-62
2022/11/08 10:09:50;;;;;;;;;;;15.10;99.90;;;;;;5019917;28;20480;-61
2022/11/08 10:12:23;;;;;;;;;;;15.10;99.90;;;;;;5016565;28;19969;-62
2022/11/08 10:15:07;;;;;;;;;;;15.10;99.90;;;;;;5014454;28;19983;-63
2022/11/08 10:17:51;;;;;;;;;;;15.20;99.90;;;;;;5014424;28;19917;-63
2022/11/08 10:20:52;;;;;;;;;;;15.10;99.90;;;;;;5018869;28;19920;-61
2022/11/08 10:23:18;;;;;;;;;;;15.20;99.90;;;;;;4982313;28;20048;-61
2022/11/08 10:25:53;;;;;;;;;;;15.30;99.90;;;;;;4985377;28;19945;-62
2022/11/08 10:28:21;;;;;;;;;;;15.20;99.90;;;;;;4981382;28;20359;-61
2022/11/08 10:30:48;;;;;;;;;;;15.20;99.90;;;;;;4982536;28;19968;-61
2022/11/08 10:33:21;;;;;;;;;;;15.20;99.90;;;;;;4987879;28;19913;-61
2022/11/08 10:35:52;;;;;;;;;;;15.30;99.90;;;;;;4989048;28;19971;-62
2022/11/08 10:38:24;;;;;;;;;;;15.20;99.90;;;;;;4985289;28;20017;-62
2022/11/08 10:40:50;;;;;;;;;;;15.20;99.90;;;;;;4986900;28;19922;-61
2022/11/08 10:43:19;;;;;;;;;;;15.40;99.90;;;;;;4979205;28;19929;-61
2022/11/08 10:45:45;;;;;;;;;;;15.40;99.90;;;;;;4988436;28;20297;-62
2022/11/08 10:48:11;;;;;;;;;;;15.50;99.90;;;;;;4986741;28;20029;-61
2022/11/08 10:50:37;;;;;;;;;;;15.50;99.90;;;;;;4984065;28;19921;-61
2022/11/08 10:53:03;;;;;;;;;;;15.50;99.90;;;;;;4990813;28;19914;-62
2022/11/08 10:55:32;;;;;;;;;;;15.40;99.90;;;;;;4983903;28;19932;-62
2022/11/08 10:57:58;;;;;;;;;;;15.30;99.90;;;;;;5011868;28;19914;-61
2022/11/08 11:00:23;;;;;;;;;;;15.40;99.90;;;;;;5024549;28;19913;-62
2022/11/08 11:02:51;;;;;;;;;;;15.30;99.90;;;;;;5027855;28;19913;-61
2022/11/08 11:05:22;;;;;;;;;;;15.30;99.90;;;;;;5029480;28;20388;-61
2022/11/08 11:07:56;;;;;;;;;;;15.30;99.90;;;;;;5030725;28;19914;-61
2022/11/08 11:10:25;;;;;;;;;;;15.30;99.90;;;;;;5019716;28;19959;-61
2022/11/08 11:12:58;;;;;;;;;;;15.50;99.90;;;;;;5021425;28;19925;-61
2022/11/08 11:15:29;;;;;;;;;;;15.60;99.90;;;;;;5023557;28;19943;-61
2022/11/08 11:17:55;;;;;;;;;;;15.80;99.90;;;;;;5018229;28;19914;-62
2022/11/08 11:20:22;;;;;;;;;;;15.80;99.90;;;;;;5020721;28;19921;-62
2022/11/08 11:22:48;;;;;;;;;;;15.90;99.90;;;;;;5026222;28;19920;-61
2022/11/08 11:25:18;;;;;;;;;;;16.00;99.90;;;;;;5020469;28;20027;-61
2022/11/08 11:27:47;;;;;;;;;;;16.10;99.90;;;;;;5023491;28;19959;-62
2022/11/08 11:30:15;;;;;;;;;;;16.30;99.90;;;;;;5018436;28;19921;-61
2022/11/08 11:32:52;;;;;;;;;;;16.50;99.90;;;;;;5018336;28;19921;-64
2022/11/08 11:35:18;;;;;;;;;;;16.30;99.90;;;;;;5018269;28;19929;-61
2022/11/08 11:37:44;;;;;;;;;;;16.00;99.90;;;;;;5015929;28;20418;-60
2022/11/08 11:40:10;;;;;;;;;;;16.00;99.90;;;;;;5021386;28;19913;-62
2022/11/08 11:42:48;;;;;;;;;;;15.90;99.90;;;;;;5013044;28;20337;-61
2022/11/08 11:45:27;;;;;;;;;;;15.90;99.90;;;;;;5019089;28;19967;-62
2022/11/08 11:47:54;;;;;;;;;;;16.10;99.90;;;;;;5018882;28;19913;-61
2022/11/08 11:50:32;;;;;;;;;;;16.20;99.90;;;;;;5025448;28;19968;-61
2022/11/08 11:52:59;;;;;;;;;;;16.20;99.90;;;;;;5024281;28;20352;-61
2022/11/08 11:55:40;;;;;;;;;;;16.20;99.90;;;;;;5018961;28;19921;-61
2022/11/08 11:58:25;;;;;;;;;;;16.80;99.90;;;;;;5023954;28;20285;-61
2022/11/08 12:01:11;;;;;;;;;;;17.10;99.90;;;;;;5026878;28;19963;-61
2022/11/08 12:03:43;;;;;;;;;;;17.10;99.90;;;;;;5025058;28;19944;-61
2022/11/08 12:06:20;;;;;;;;;;;17.00;99.90;;;;;;5025133;28;19974;-61
2022/11/08 12:08:54;;;;;;;;;;;16.90;99.90;;;;;;5022225;28;20309;-61
2022/11/08 12:11:32;;;;;;;;;;;16.90;99.90;;;;;;5020017;28;20383;-61
2022/11/08 12:13:58;;;;;;;;;;;17.00;99.90;;;;;;5024166;28;19933;-62
2022/11/08 12:16:23;;;;;;;;;;;16.70;99.90;;;;;;5024612;28;20024;-61
2022/11/08 12:18:51;;;;;;;;;;;16.40;99.90;;;;;;5026297;28;19920;-61
2022/11/08 12:21:26;;;;;;;;;;;16.20;99.90;;;;;;5019227;28;19917;-61
2022/11/08 12:24:10;;;;;;;;;;;16.20;99.90;;;;;;5023702;28;19913;-60
2022/11/08 12:26:54;;;;;;;;;;;16.30;99.90;;;;;;5022480;28;19921;-61
2022/11/08 12:29:24;;;;;;;;;;;16.40;99.90;;;;;;5021105;28;20349;-60
2022/11/08 12:32:08;;;;;;;;;;;16.50;99.90;;;;;;5020809;28;20373;-61
2022/11/08 12:34:44;;;;;;;;;;;16.40;99.90;;;;;;5023028;28;19955;-62
2022/11/08 12:37:15;;;;;;;;;;;16.40;99.90;;;;;;5022059;28;20007;-61
2022/11/08 12:39:46;;;;;;;;;;;16.20;99.90;;;;;;5019653;28;19966;-62
2022/11/08 12:42:21;;;;;;;;;;;16.10;99.90;;;;;;5016990;28;19917;-62
2022/11/08 12:44:49;;;;;;;;;;;16.00;99.90;;;;;;5021131;28;19921;-60
2022/11/08 12:47:29;;;;;;;;;;;16.00;99.90;;;;;;5022439;28;20361;-60
2022/11/08 12:50:13;;;;;;;;;;;16.20;99.90;;;;;;5026579;28;19913;-60
2022/11/08 12:52:43;;;;;;;;;;;16.60;99.90;;;;;;5023165;28;19913;-61
2022/11/08 12:55:15;;;;;;;;;;;16.80;99.90;;;;;;5021471;28;20011;-59
2022/11/08 12:57:41;;;;;;;;;;;16.80;99.90;;;;;;5024474;28;19921;-62
2022/11/08 13:00:13;;;;;;;;;;;16.70;99.90;;;;;;5013747;28;20336;-60
2022/11/08 13:02:39;;;;;;;;;;;16.40;99.90;;;;;;5024429;28;19928;-60
2022/11/08 13:05:24;;;;;;;;;;;16.30;99.90;;;;;;5024600;28;19919;-61
2022/11/08 13:08:21;;;;;;;;;;;16.10;99.90;;;;;;5012767;28;19924;-61
2022/11/08 13:10:51;;;;;;;;;;;16.00;99.90;;;;;;5003433;28;19914;-63
2022/11/08 13:13:32;;;;;;;;;;;15.90;99.90;;;;;;5016628;28;19917;-62
2022/11/08 13:16:07;;;;;;;;;;;15.90;99.90;;;;;;5017343;28;20047;-59
2022/11/08 13:18:33;;;;;;;;;;;15.80;99.90;;;;;;5022312;28;19920;-60
2022/11/08 13:20:59;;;;;;;;;;;15.80;99.90;;;;;;5019728;28;20388;-60
2022/11/08 13:23:29;;;;;;;;;;;15.90;99.90;;;;;;5024648;28;19955;-60
2022/11/08 13:26:09;;;;;;;;;;;15.80;99.90;;;;;;5025878;28;19920;-60
2022/11/08 13:28:36;;;;;;;;;;;15.90;99.90;;;;;;5020243;28;20008;-60
2022/11/08 13:31:16;;;;;;;;;;;15.90;99.90;;;;;;5021977;28;19913;-60
2022/11/08 13:34:01;;;;;;;;;;;15.80;99.90;;;;;;5022343;28;19913;-60
2022/11/08 13:36:42;;;;;;;;;;;15.80;99.90;;;;;;5013789;28;19925;-60
2022/11/08 13:39:26;;;;;;;;;;;15.80;99.90;;;;;;5015064;28;19920;-60
2022/11/08 13:42:23;;;;;;;;;;;15.70;99.90;;;;;;5019195;28;19917;-61
2022/11/08 13:44:55;;;;;;;;;;;15.60;99.90;;;;;;5014357;28;20704;-61
2022/11/08 13:47:33;;;;;;;;;;;15.70;99.90;;;;;;5018982;28;20036;-61
2022/11/08 13:50:18;;;;;;;;;;;15.80;99.90;;;;;;5020858;28;19922;-60
2022/11/08 13:52:59;;;;;;;;;;;15.70;99.90;;;;;;5022516;28;20351;-62
2022/11/08 13:58:47;;;;;;;;;;;15.60;99.90;;;;;;5021190;28;19920;-62
2022/11/08 14:01:31;;;;;;;;;;;15.30;99.90;;;;;;5023866;28;20640;-61
2022/11/08 14:03:58;;;;;;;;;;;15.00;99.90;;;;;;5020942;28;19971;-62
2022/11/08 14:06:30;;;;;;;;;;;14.90;99.90;;;;;;5017730;28;20373;-62
2022/11/08 14:27:38;;;;;;;;;;;11.40;99.90;;;;;;5020379;28;19960;-79
2022/11/08 14:33:19;;;;;;;;;;;11.50;99.90;;;;;;4993281;28;21062;-67
2022/11/08 14:35:53;;;;;;;;;;;11.60;99.90;;;;;;5000138;28;19952;-66
2022/11/08 14:38:18;;;;;;;;;;;11.80;99.90;;;;;;5006066;28;20000;-65
2022/11/08 14:40:51;;;;;;;;;;;11.90;99.90;;;;;;5003196;28;20020;-64
2022/11/08 14:43:18;;;;;;;;;;;11.90;99.90;;;;;;5005073;28;19992;-65
2022/11/08 14:48:55;;;;;;;;;;;12.00;99.90;;;;;;4998290;28;20467;-69
2022/11/08 14:51:21;;;;;;;;;;;11.70;99.90;;;;;;5006760;28;19969;-84
2022/11/08 14:56:50;;;;;;;;;;;11.30;99.90;;;;;;5002091;28;20055;-76
2022/11/08 14:59:16;;;;;;;;;;;11.40;99.90;;;;;;5002502;28;20008;-69
2022/11/08 15:01:46;;;;;;;;;;;11.50;99.90;;;;;;5002957;28;19921;-67
2022/11/08 15:04:13;;;;;;;;;;;11.60;99.90;;;;;;5019512;28;19990;-67
2022/11/08 15:06:42;;;;;;;;;;;11.80;99.90;;;;;;5022694;28;19937;-65
2022/11/08 15:09:15;;;;;;;;;;;12.00;99.90;;;;;;5023177;28;19913;-66
2022/11/08 15:11:41;;;;;;;;;;;12.20;99.90;;;;;;5022369;28;20416;-65
2022/11/08 15:14:08;;;;;;;;;;;12.30;99.90;;;;;;5022072;28;19913;-64
2022/11/08 15:16:41;;;;;;;;;;;12.40;99.90;;;;;;5023049;28;19920;-66